Time;durP1;ratioP1;P1;durP2;ratioP2;P2;SDS_P1;SDS_P2;PMS_P1;PMS_P2;Temp;Humidity;BMP_temperature;BMP_pressure;BME280_temperature;BME280_humidity;BME280_pressure;Samples;Min_cycle;Max_cycle;Signal;HPM_P1;HPM_P2
2022/04/16 00:02:19;;;;;;;4.63;3.28;;;;;;;20.38;44.55;101295.81;4895924;29;20408;-72
2022/04/16 00:04:47;;;;;;;5.25;3.45;;;;;;;20.36;44.64;101281.63;4894917;29;20059;-72
2022/04/16 00:07:14;;;;;;;5.78;3.30;;;;;;;20.36;44.59;101281.63;4895135;29;20059;-71
2022/04/16 00:09:42;;;;;;;4.95;3.80;;;;;;;20.35;44.52;101283.47;4894841;29;20045;-72
2022/04/16 00:12:10;;;;;;;7.65;4.10;;;;;;;20.36;44.59;101281.63;4894546;29;20064;-72
2022/04/16 00:14:38;;;;;;;5.32;3.50;;;;;;;20.34;44.52;101273.72;4895003;29;20057;-72
2022/04/16 00:17:06;;;;;;;8.85;3.60;;;;;;;20.35;44.37;101274.56;4894641;29;20044;-72
2022/04/16 00:19:34;;;;;;;5.80;3.25;;;;;;;20.34;44.44;101257.56;4894549;29;20405;-72
2022/04/16 00:22:01;;;;;;;4.75;3.83;;;;;;;20.35;44.34;101258.41;4894771;29;20068;-72
2022/04/16 00:24:29;;;;;;;5.57;3.95;;;;;;;20.33;44.22;101255.00;4895028;29;20052;-72
2022/04/16 00:26:56;;;;;;;7.82;4.35;;;;;;;20.33;44.22;101250.47;4894478;29;20055;-72
2022/04/16 00:29:24;;;;;;;8.00;4.30;;;;;;;20.33;44.33;101249.63;4877486;29;20409;-72
2022/04/16 00:31:52;;;;;;;4.20;3.33;;;;;;;20.33;44.29;101252.31;4895017;29;20044;-72
2022/04/16 00:34:19;;;;;;;6.50;3.47;;;;;;;20.33;44.13;101252.31;4908895;29;20500;-72
2022/04/16 00:36:48;;;;;;;6.32;3.47;;;;;;;20.33;44.22;101252.31;4913400;29;20055;-72
2022/04/16 00:39:15;;;;;;;4.07;3.55;;;;;;;20.33;44.08;101249.63;4913589;29;20051;-72
2022/04/16 00:41:43;;;;;;;4.32;3.80;;;;;;;20.32;44.19;101262.22;4913168;29;20048;-72
2022/04/16 00:44:10;;;;;;;4.85;3.65;;;;;;;20.32;44.15;101264.06;4914843;29;20048;-72
2022/04/16 00:46:37;;;;;;;6.15;3.72;;;;;;;20.32;43.96;101256.84;4916952;29;20055;-72
2022/04/16 00:49:05;;;;;;;4.28;3.08;;;;;;;20.31;44.06;101248.91;4916433;29;20048;-72
2022/04/16 00:51:32;;;;;;;6.60;4.13;;;;;;;20.32;44.13;101255.97;4916211;29;20400;-72
2022/04/16 00:54:00;;;;;;;4.78;4.00;;;;;;;20.31;44.13;101251.59;4906152;29;20051;-72
2022/04/16 00:56:27;;;;;;;5.28;3.67;;;;;;;20.31;44.21;101251.59;4897063;29;20052;-72
2022/04/16 00:58:55;;;;;;;4.40;3.67;;;;;;;20.31;43.94;101248.91;4897512;29;20049;-72
2022/04/16 01:01:23;;;;;;;4.88;4.03;;;;;;;20.30;43.90;101258.81;4897784;29;20396;-72
2022/04/16 01:03:50;;;;;;;5.25;3.70;;;;;;;20.30;43.94;101256.13;4880916;29;20056;-72
2022/04/16 01:06:17;;;;;;;7.05;3.85;;;;;;;20.30;43.90;101256.13;4897768;29;20400;-72
2022/04/16 01:08:45;;;;;;;5.10;3.90;;;;;;;20.30;44.02;101266.03;4897647;29;20052;-72
2022/04/16 01:11:13;;;;;;;5.50;3.47;;;;;;;20.29;43.83;101259.78;4897327;29;20045;-72
2022/04/16 01:13:46;;;;;;;5.28;4.00;;;;;;;20.29;43.81;101254.38;4897216;29;20048;-72
2022/04/16 01:16:13;;;;;;;4.18;3.75;;;;;;;20.29;43.84;101249.00;4897200;29;20051;-72
2022/04/16 01:18:47;;;;;;;4.70;3.78;;;;;;;20.29;43.97;101256.22;4896362;29;20494;-72
2022/04/16 01:21:14;;;;;;;4.78;3.38;;;;;;;20.28;43.74;101247.31;4897083;29;20040;-72
2022/04/16 01:23:42;;;;;;;5.68;3.53;;;;;;;20.28;43.87;101252.69;4897116;29;20044;-72
2022/04/16 01:26:09;;;;;;;5.25;3.55;;;;;;;20.28;43.65;101251.84;4897730;29;20056;-72
2022/04/16 01:28:36;;;;;;;4.68;3.67;;;;;;;20.28;43.71;101251.84;4897268;29;20508;-72
2022/04/16 01:31:04;;;;;;;5.25;3.88;;;;;;;20.28;43.82;101257.22;4897110;29;20052;-72
2022/04/16 01:33:31;;;;;;;4.90;3.53;;;;;;;20.28;43.84;101251.84;4905608;29;20063;-72
2022/04/16 01:35:58;;;;;;;4.25;3.85;;;;;;;20.28;43.86;101251.84;4915978;29;20052;-72
2022/04/16 01:38:26;;;;;;;5.88;4.00;;;;;;;20.27;43.70;101255.53;4915688;29;20052;-72
2022/04/16 01:40:57;;;;;;;4.70;3.90;;;;;;;20.26;43.87;101243.91;4915925;29;20052;-72
2022/04/16 01:43:25;;;;;;;4.93;3.40;;;;;;;20.27;43.69;101239.38;4898783;29;20052;-72
2022/04/16 01:45:52;;;;;;;5.57;4.10;;;;;;;20.26;43.78;101249.28;4915554;29;20044;-72
2022/04/16 01:48:21;;;;;;;4.97;3.83;;;;;;;20.26;43.70;101241.22;4898706;29;20412;-72
2022/04/16 01:50:51;;;;;;;5.50;3.58;;;;;;;20.25;43.67;101248.44;4898392;29;20385;-72
2022/04/16 01:53:18;;;;;;;5.50;3.78;;;;;;;20.25;43.85;101240.38;4915203;29;20075;-72
2022/04/16 01:55:46;;;;;;;5.25;4.10;;;;;;;20.26;43.80;101235.84;4898737;29;20063;-72
2022/04/16 01:58:13;;;;;;;5.22;3.97;;;;;;;20.26;43.82;101249.28;4897077;29;20049;-72
2022/04/16 02:00:40;;;;;;;5.18;3.90;;;;;;;20.25;43.71;101243.06;4896795;29;20507;-72
2022/04/16 02:03:08;;;;;;;3.75;3.30;;;;;;;20.25;43.73;101240.38;4896913;29;20048;-72
2022/04/16 02:05:36;;;;;;;4.80;3.50;;;;;;;20.24;43.63;101244.03;4896681;29;20048;-72
2022/04/16 02:08:03;;;;;;;5.88;3.50;;;;;;;20.25;43.79;101244.88;4896779;29;20041;-72
2022/04/16 02:10:30;;;;;;;4.57;3.88;;;;;;;20.25;43.65;101245.75;4896353;29;20052;-72
2022/04/16 02:12:58;;;;;;;5.05;3.97;;;;;;;20.25;43.79;101248.44;4896737;29;20048;-71
2022/04/16 02:15:25;;;;;;;4.85;3.40;;;;;;;20.24;43.68;101238.66;4896293;29;20064;-72
2022/04/16 02:17:53;;;;;;;5.97;3.75;;;;;;;20.24;43.66;101235.97;4879588;29;20057;-72
2022/04/16 02:20:21;;;;;;;5.38;4.07;;;;;;;20.24;43.60;101235.09;4896819;29;20049;-72
2022/04/16 02:22:52;;;;;;;5.28;4.55;;;;;;;20.24;43.79;101244.03;4896395;29;20052;-72
2022/04/16 02:25:20;;;;;;;4.40;3.67;;;;;;;20.24;43.75;101235.97;4896506;29;20060;-72
2022/04/16 02:27:47;;;;;;;5.45;4.00;;;;;;;20.23;43.67;101242.31;4896723;29;20515;-72
2022/04/16 02:30:17;;;;;;;4.47;3.30;;;;;;;20.23;43.60;101236.94;4894846;29;20053;-72
2022/04/16 02:32:52;;;;;;;4.50;3.35;;;;;;;20.23;43.67;101242.31;4898199;29;20045;-72
2022/04/16 02:35:21;;;;;;;5.20;3.72;;;;;;;20.23;43.55;101254.91;4915263;29;20052;-72
2022/04/16 02:37:49;;;;;;;3.92;3.08;;;;;;;20.23;43.66;101249.53;4897022;29;20432;-72
2022/04/16 02:40:17;;;;;;;6.13;3.58;;;;;;;20.23;43.57;101246.84;4914887;29;20051;-72
2022/04/16 02:42:45;;;;;;;4.95;3.30;;;;;;;20.22;43.54;101247.84;4915146;29;20052;-72
2022/04/16 02:48:01;;;;;;;4.97;3.83;;;;;;;20.21;43.49;101233.53;4914967;29;20476;-73
2022/04/16 02:50:29;;;;;;;5.55;3.80;;;;;;;20.22;43.51;101234.41;4914891;29;20514;-72
2022/04/16 02:52:58;;;;;;;4.18;3.40;;;;;;;20.23;43.48;101233.41;4914561;29;20056;-72
2022/04/16 02:55:26;;;;;;;4.82;3.83;;;;;;;20.22;43.72;101234.41;4957549;28;20480;-73
2022/04/16 02:57:53;;;;;;;5.97;4.25;;;;;;;20.22;43.68;101232.56;4893399;29;20044;-71
2022/04/16 03:00:21;;;;;;;4.38;3.45;;;;;;;20.22;43.52;101229.03;4896013;29;20049;-71
2022/04/16 03:02:53;;;;;;;4.20;3.20;;;;;;;20.22;43.71;101219.13;4895756;29;20040;-71
2022/04/16 03:05:22;;;;;;;4.32;3.92;;;;;;;20.22;43.52;101221.81;4895548;29;20057;-71
2022/04/16 03:07:50;;;;;;;4.10;3.70;;;;;;;20.20;43.59;101218.38;4895404;29;20053;-71
2022/04/16 03:10:17;;;;;;;4.47;3.60;;;;;;;20.20;43.46;101218.38;4895638;29;20055;-71
2022/04/16 03:12:46;;;;;;;4.47;3.65;;;;;;;20.20;43.62;101214.84;4878538;29;20048;-71
2022/04/16 03:18:02;;;;;;;7.03;3.30;;;;;;;20.19;43.63;101213.13;4895324;29;20049;-71
2022/04/16 03:20:30;;;;;;;4.40;3.28;;;;;;;20.19;43.54;101219.38;4895584;29;20052;-71
2022/04/16 03:22:58;;;;;;;3.47;3.13;;;;;;;20.19;43.42;101207.75;4879874;28;20059;-72
2022/04/16 03:25:27;;;;;;;5.30;3.47;;;;;;;20.19;43.58;101215.81;4896192;29;20479;-72
2022/04/16 03:27:56;;;;;;;4.68;3.75;;;;;;;20.19;43.55;101215.81;4895540;29;20504;-72
2022/04/16 03:30:24;;;;;;;4.95;3.63;;;;;;;20.17;43.35;101207.88;4895675;29;20040;-73
2022/04/16 03:32:53;;;;;;;3.95;3.17;;;;;;;20.17;43.32;101207.03;4898032;29;20043;-72
2022/04/16 03:35:22;;;;;;;4.10;3.47;;;;;;;20.17;43.38;101205.19;4914109;29;20068;-73
2022/04/16 03:37:49;;;;;;;7.18;4.00;;;;;;;20.17;43.42;101204.34;4914462;29;20052;-73
2022/04/16 03:40:17;;;;;;;4.88;3.58;;;;;;;20.17;43.30;101205.19;4913943;29;20057;-73
2022/04/16 03:42:49;;;;;;;5.22;3.63;;;;;;;20.16;43.61;101203.50;4913970;29;20048;-73
2022/04/16 03:45:21;;;;;;;5.05;3.25;;;;;;;20.16;43.42;101199.94;4897267;29;20059;-73
2022/04/16 03:47:48;;;;;;;6.35;3.63;;;;;;;20.16;43.44;101197.25;4914355;29;20063;-72
2022/04/16 03:50:17;;;;;;;4.50;3.08;;;;;;;20.16;43.32;101200.81;4913956;29;20052;-72
2022/04/16 03:52:47;;;;;;;4.10;3.70;;;;;;;20.17;43.10;101199.81;4913608;29;20044;-73
2022/04/16 04:00:54;;;;;;;5.28;3.90;;;;;;;20.17;43.16;101198.97;4895161;29;20053;-72
2022/04/16 04:03:22;;;;;;;4.68;3.90;;;;;;;20.16;43.33;101199.94;4894906;29;20055;-73
2022/04/16 04:05:53;;;;;;;5.55;3.65;;;;;;;20.17;43.24;101201.66;4895236;29;20059;-71
2022/04/16 04:08:22;;;;;;;5.70;4.03;;;;;;;20.16;43.20;101205.31;4895092;29;20056;-72
2022/04/16 04:10:49;;;;;;;4.38;3.80;;;;;;;20.16;43.17;101206.19;4895552;29;20415;-73
2022/04/16 04:13:17;;;;;;;6.53;3.72;;;;;;;20.15;43.16;101200.94;4894781;29;20520;-73
2022/04/16 04:15:45;;;;;;;4.65;3.40;;;;;;;20.16;43.38;101191.88;4894452;29;20052;-74
2022/04/16 04:18:12;;;;;;;4.00;3.20;;;;;;;20.16;43.37;101189.19;4896390;29;20481;-73
2022/04/16 04:20:40;;;;;;;5.22;3.53;;;;;;;20.16;43.17;101199.94;4898843;29;20063;-73
2022/04/16 04:23:07;;;;;;;4.57;2.97;;;;;;;20.16;43.33;101205.31;4898111;29;20067;-73
2022/04/16 04:25:34;;;;;;;3.75;3.10;;;;;;;20.15;43.34;101204.47;4898331;29;20049;-73
2022/04/16 04:28:02;;;;;;;4.65;3.10;;;;;;;20.15;43.32;101199.09;4897873;29;20059;-72
2022/04/16 04:30:30;;;;;;;4.60;3.53;;;;;;;20.14;43.32;101202.78;4897908;29;20045;-73
2022/04/16 04:32:58;;;;;;;3.95;3.30;;;;;;;20.14;43.28;101202.78;4897116;28;20052;-72
2022/04/16 04:35:26;;;;;;;4.93;3.80;;;;;;;20.14;43.37;101202.78;4897850;29;20052;-72
2022/04/16 04:37:54;;;;;;;6.72;4.00;;;;;;;20.14;43.27;101200.09;4897970;29;20067;-73
2022/04/16 04:40:22;;;;;;;6.57;3.60;;;;;;;20.13;43.18;101198.34;4898047;29;20045;-73
2022/04/16 04:42:49;;;;;;;5.90;3.75;;;;;;;20.14;43.14;101210.00;4897752;29;20048;-72
2022/04/16 04:45:17;;;;;;;5.32;3.80;;;;;;;20.13;43.29;101209.13;4897555;29;20484;-72
2022/04/16 04:47:44;;;;;;;4.20;3.80;;;;;;;20.12;43.17;101212.78;4898105;29;20059;-73
2022/04/16 04:50:12;;;;;;;5.45;3.35;;;;;;;20.13;43.35;101221.69;4897823;29;20484;-73
2022/04/16 04:52:41;;;;;;;4.00;3.38;;;;;;;20.13;43.17;101221.69;4897665;29;20045;-72
2022/04/16 04:55:10;;;;;;;5.00;3.88;;;;;;;20.12;43.22;101223.53;4898393;29;20048;-73
2022/04/16 04:57:39;;;;;;;4.22;3.20;;;;;;;20.13;43.23;101224.38;4897199;29;20048;-73
2022/04/16 05:00:08;;;;;;;4.65;3.00;;;;;;;20.11;43.19;101224.53;4896901;29;20513;-73
2022/04/16 05:02:42;;;;;;;5.20;3.58;;;;;;;20.11;43.19;101235.28;4898065;29;20517;-73
2022/04/16 05:05:11;;;;;;;4.68;3.65;;;;;;;20.12;43.15;101242.34;4897772;29;20416;-73
2022/04/16 05:07:39;;;;;;;5.28;3.70;;;;;;;20.12;43.25;101236.13;4897790;29;20049;-72
2022/04/16 05:10:07;;;;;;;3.60;3.13;;;;;;;20.11;43.27;101237.97;4897408;29;20053;-72
2022/04/16 05:12:35;;;;;;;4.25;3.30;;;;;;;20.11;43.09;101248.72;4897372;29;20064;-73
2022/04/16 05:15:04;;;;;;;4.43;3.38;;;;;;;20.11;43.22;101250.56;4896914;29;20059;-73
2022/04/16 05:17:31;;;;;;;5.10;3.75;;;;;;;20.11;43.29;101247.88;4897184;29;20075;-71
2022/04/16 05:19:59;;;;;;;3.75;3.15;;;;;;;20.11;43.15;101253.25;4897482;29;20044;-72
2022/04/16 05:22:29;;;;;;;5.70;3.63;;;;;;;20.10;43.21;101257.78;4897293;29;20455;-73
2022/04/16 05:24:56;;;;;;;5.18;3.15;;;;;;;20.10;43.18;101257.78;4897127;29;20052;-73
2022/04/16 05:27:25;;;;;;;5.35;3.72;;;;;;;20.10;43.21;101249.72;4897194;29;20060;-73
2022/04/16 05:30:06;;;;;;;4.05;3.13;;;;;;;20.10;43.10;101257.78;4896492;29;20049;-73
2022/04/16 05:32:39;;;;;;;4.95;3.55;;;;;;;20.10;43.11;101259.63;4898471;29;20503;-73
2022/04/16 05:35:09;;;;;;;5.85;3.63;;;;;;;20.09;43.08;101256.03;4915742;29;20063;-72
2022/04/16 05:37:36;;;;;;;4.88;3.38;;;;;;;20.09;43.26;101258.72;4915807;29;20048;-72
2022/04/16 05:40:05;;;;;;;4.22;3.28;;;;;;;20.09;43.42;101269.47;4915924;29;20061;-73
2022/04/16 05:42:32;;;;;;;4.32;3.53;;;;;;;20.09;43.19;101269.47;4916040;29;20048;-73
2022/04/16 05:45:01;;;;;;;3.75;3.15;;;;;;;20.09;43.33;101266.78;4915472;29;20048;-73
2022/04/16 05:47:31;;;;;;;3.50;3.08;;;;;;;20.09;43.23;101268.63;4915687;29;20051;-73
2022/04/16 05:49:58;;;;;;;3.72;2.92;;;;;;;20.08;43.24;101269.63;4916089;29;20047;-73
2022/04/16 05:52:26;;;;;;;4.10;3.15;;;;;;;20.09;43.21;101274.00;4898775;29;20420;-73
2022/04/16 05:54:54;;;;;;;5.95;3.90;;;;;;;20.09;43.29;101277.53;4913875;29;20049;-73
2022/04/16 05:57:23;;;;;;;5.43;3.03;;;;;;;20.09;43.48;101274.00;4916190;29;20040;-73
2022/04/16 05:59:51;;;;;;;3.97;2.92;;;;;;;20.09;43.41;101268.63;4899318;29;20071;-73
2022/04/16 06:02:19;;;;;;;5.80;3.42;;;;;;;20.09;43.48;101268.63;4877861;29;20378;-73
2022/04/16 06:04:46;;;;;;;4.05;3.38;;;;;;;20.08;43.41;101265.09;4878562;29;20052;-73
2022/04/16 06:07:14;;;;;;;5.32;3.35;;;;;;;20.10;43.42;101270.38;4878094;29;20057;-73
2022/04/16 06:09:42;;;;;;;3.90;3.05;;;;;;;20.09;43.49;101268.63;4878039;29;20072;-73
2022/04/16 06:12:09;;;;;;;3.80;3.22;;;;;;;20.09;43.52;101272.16;4878264;29;20056;-73
2022/04/16 06:14:36;;;;;;;5.03;3.22;;;;;;;20.08;43.58;101264.25;4861556;29;20057;-73
2022/04/16 06:17:04;;;;;;;5.22;3.20;;;;;;;20.09;43.46;101277.53;4877912;29;20056;-73
2022/04/16 06:19:31;;;;;;;4.00;2.90;;;;;;;20.09;43.63;101272.16;4878434;29;20056;-73
2022/04/16 06:21:59;;;;;;;3.55;2.95;;;;;;;20.09;43.58;101277.53;4876973;29;20045;-73
2022/04/16 06:24:26;;;;;;;5.25;3.45;;;;;;;20.09;43.49;101277.53;4878606;29;20048;-73
2022/04/16 06:26:53;;;;;;;4.85;3.72;;;;;;;20.09;43.71;101280.22;4876606;29;20072;-73
2022/04/16 06:29:20;;;;;;;4.60;2.97;;;;;;;20.09;43.48;101290.13;4887404;29;20059;-73
2022/04/16 06:31:48;;;;;;;3.75;3.03;;;;;;;20.10;43.56;101283.81;4896167;29;20408;-73
2022/04/16 06:34:15;;;;;;;4.47;2.80;;;;;;;20.09;43.60;101274.00;4910516;29;20484;-73
2022/04/16 06:36:43;;;;;;;4.35;3.00;;;;;;;20.09;43.66;101268.63;4914794;29;20044;-73
2022/04/16 06:39:10;;;;;;;4.07;3.25;;;;;;;20.10;43.73;101273.91;4914539;29;20048;-73
2022/04/16 06:41:37;;;;;;;4.25;3.17;;;;;;;20.10;43.63;101273.91;4913858;29;20052;-73
2022/04/16 06:44:05;;;;;;;3.97;2.88;;;;;;;20.10;43.64;101268.53;4915036;29;20048;-73
2022/04/16 06:46:32;;;;;;;4.05;3.60;;;;;;;20.10;43.58;101268.53;4914782;29;20074;-72
2022/04/16 06:49:00;;;;;;;5.40;3.35;;;;;;;20.10;43.63;101270.38;4915396;29;20055;-73
2022/04/16 06:51:27;;;;;;;5.18;3.83;;;;;;;20.09;43.74;101266.78;4914751;29;20488;-73
2022/04/16 06:53:54;;;;;;;5.65;3.13;;;;;;;20.10;43.52;101265.84;4914864;29;20115;-72
2022/04/16 06:56:22;;;;;;;3.45;3.05;;;;;;;20.10;43.71;101263.16;4897722;29;20404;-73
2022/04/16 06:58:52;;;;;;;3.22;2.90;;;;;;;20.10;43.70;101263.16;4915071;29;20079;-73
2022/04/16 07:01:20;;;;;;;6.32;2.90;;;;;;;20.11;43.51;101262.16;4892681;29;20048;-72
2022/04/16 07:03:54;;;;;;;4.13;2.80;;;;;;;20.10;43.52;101263.16;5111349;27;20369;-72
2022/04/16 07:06:21;;;;;;;4.80;3.60;;;;;;;20.12;43.55;101260.31;5110877;28;20051;-72
2022/04/16 07:08:48;;;;;;;5.05;3.03;;;;;;;20.12;43.64;101258.47;5110625;28;20048;-70
2022/04/16 07:11:16;;;;;;;3.58;2.80;;;;;;;20.13;43.65;101257.50;5110841;28;20048;-70
2022/04/16 07:13:43;;;;;;;5.80;3.00;;;;;;;20.14;43.63;101256.53;5110227;28;20043;-70
2022/04/16 07:16:10;;;;;;;6.05;2.80;;;;;;;20.14;43.79;101255.69;5109642;28;20451;-70
2022/04/16 07:18:38;;;;;;;2.95;2.65;;;;;;;20.15;43.58;101246.63;5110304;28;20047;-70
2022/04/16 07:21:05;;;;;;;4.45;3.08;;;;;;;20.15;43.87;101244.78;5110338;28;20100;-70
2022/04/16 07:23:32;;;;;;;5.00;2.70;;;;;;;20.17;43.81;101247.34;5110220;28;20664;-70
2022/04/16 07:26:00;;;;;;;3.35;2.78;;;;;;;20.17;43.84;101244.66;5110255;28;20502;-70
2022/04/16 07:28:27;;;;;;;3.80;2.88;;;;;;;20.16;43.98;101238.44;5110233;28;20048;-70
2022/04/16 07:30:54;;;;;;;4.45;3.35;;;;;;;20.18;43.87;101241.00;5110295;28;20407;-72
2022/04/16 07:33:22;;;;;;;4.35;3.15;;;;;;;20.18;43.98;101241.00;5110331;28;20044;-72
2022/04/16 07:35:49;;;;;;;4.28;2.42;;;;;;;20.18;43.86;101238.31;5109840;28;20039;-72
2022/04/16 07:38:16;;;;;;;4.40;3.08;;;;;;;20.19;44.02;101238.19;5109931;28;20059;-71
2022/04/16 07:40:43;;;;;;;4.75;2.90;;;;;;;20.18;43.84;101233.78;5109809;28;20760;-70
2022/04/16 07:43:12;;;;;;;3.00;2.42;;;;;;;20.19;43.84;101243.56;5110145;28;20046;-70
2022/04/16 07:45:39;;;;;;;4.30;3.40;;;;;;;20.21;43.85;101246.97;5109735;28;20048;-70
2022/04/16 07:48:10;;;;;;;4.25;3.00;;;;;;;20.22;43.92;101243.31;5110022;28;20044;-70
2022/04/16 07:50:37;;;;;;;7.85;4.03;;;;;;;20.24;43.66;101248.56;5108938;28;20051;-71
2022/04/16 07:53:06;;;;;;;5.93;3.13;;;;;;;20.25;43.65;101251.13;5109905;28;20050;-70
2022/04/16 07:55:34;;;;;;;5.72;3.63;;;;;;;20.28;43.66;101259.91;5110052;28;20044;-71
2022/04/16 07:58:01;;;;;;;5.97;3.00;;;;;;;20.30;43.92;101263.34;5109684;28;20051;-71
2022/04/16 08:00:29;;;;;;;5.28;3.60;;;;;;;20.32;43.74;101264.06;5109201;28;20395;-71
2022/04/16 08:02:56;;;;;;;5.10;2.80;;;;;;;20.33;43.77;101253.16;5089856;28;20510;-72
2022/04/16 08:05:24;;;;;;;4.82;3.22;;;;;;;20.35;43.83;101261.13;5089541;28;20368;-71
2022/04/16 08:07:55;;;;;;;3.53;2.97;;;;;;;20.37;43.90;101261.81;5087997;28;20056;-71
2022/04/16 08:10:22;;;;;;;6.53;3.10;;;;;;;20.38;43.76;101260.88;5089461;28;20067;-71
2022/04/16 08:12:50;;;;;;;4.95;2.90;;;;;;;20.38;44.07;101259.03;5088775;28;20036;-71
2022/04/16 08:15:17;;;;;;;5.32;3.22;;;;;;;20.38;43.84;101256.34;5075472;28;20045;-71
2022/04/16 08:17:45;;;;;;;4.55;3.13;;;;;;;20.39;43.86;101260.72;5075431;28;20469;-71
2022/04/16 08:20:12;;;;;;;5.57;3.92;;;;;;;20.39;43.54;101262.56;5076010;28;20060;-71
2022/04/16 08:22:46;;;;;;;4.97;3.13;;;;;;;20.38;43.55;101260.88;5075113;28;20056;-72
2022/04/16 08:27:52;;;;;;;6.72;4.93;;;;;;;20.38;42.99;101261.72;5075749;28;20037;-72
2022/04/16 08:30:19;;;;;;;11.95;5.35;;;;;;;20.36;42.84;101260.13;5089584;28;20528;-72
2022/04/16 08:32:47;;;;;;;7.20;4.80;;;;;;;20.34;42.97;101260.25;5095194;28;20467;-71
2022/04/16 08:35:18;;;;;;;7.40;4.45;;;;;;;20.35;43.17;101258.41;5095786;28;20055;-72
2022/04/16 08:37:48;;;;;;;5.65;3.92;;;;;;;20.38;43.31;101252.78;5095622;28;20048;-72
2022/04/16 08:40:16;;;;;;;7.93;4.53;;;;;;;20.39;43.31;101254.50;5095416;28;20483;-73
2022/04/16 08:42:47;;;;;;;6.28;4.18;;;;;;;20.41;43.36;101260.59;5095805;28;20054;-73
2022/04/16 08:45:15;;;;;;;5.45;3.90;;;;;;;20.42;43.34;101265.00;5093561;28;20059;-72
2022/04/16 08:47:44;;;;;;;8.68;4.50;;;;;;;20.42;43.06;101257.78;5093420;28;20052;-72
2022/04/16 08:50:13;;;;;;;6.97;3.50;;;;;;;20.43;43.23;101250.56;5095789;28;20047;-72
2022/04/16 08:52:41;;;;;;;6.32;4.22;;;;;;;20.44;43.13;101250.44;5093652;28;20051;-72
2022/04/16 08:55:10;;;;;;;8.25;3.95;;;;;;;20.46;43.13;101253.00;5094770;28;20059;-72
2022/04/16 08:57:41;;;;;;;5.63;3.33;;;;;;;20.46;43.12;101237.72;5094917;28;20052;-73
2022/04/16 09:00:13;;;;;;;10.93;4.10;;;;;;;20.47;43.29;101242.09;5093584;28;20056;-72
2022/04/16 09:02:59;;;;;;;11.60;4.32;;;;;;;20.47;42.77;101239.41;5078451;28;20500;-72
2022/04/16 09:05:28;;;;;;;4.47;3.45;;;;;;;20.49;42.81;101233.94;5074866;28;20044;-73
2022/04/16 09:07:57;;;;;;;8.32;4.55;;;;;;;20.50;42.88;101235.66;5074639;28;20037;-73
2022/04/16 09:10:26;;;;;;;7.40;3.72;;;;;;;20.49;42.95;101229.41;5074560;28;20040;-74
2022/04/16 09:12:56;;;;;;;7.35;3.83;;;;;;;20.51;43.22;101234.66;5072902;28;20055;-72
2022/04/16 09:15:25;;;;;;;8.40;4.75;;;;;;;20.51;42.72;101231.97;5086313;28;20063;-72
2022/04/16 09:17:56;;;;;;;6.75;4.05;;;;;;;20.52;42.73;101236.38;5094885;28;20054;-72
2022/04/16 09:20:30;;;;;;;6.65;4.32;;;;;;;20.53;42.69;101230.00;5094607;28;20048;-72
2022/04/16 09:22:58;;;;;;;8.23;5.50;;;;;;;20.53;42.08;101223.75;5095038;28;20383;-72
2022/04/16 09:25:29;;;;;;;13.45;7.22;;;;;;;20.52;41.60;101231.00;5092078;28;20044;-73
2022/04/16 09:27:58;;;;;;;11.43;6.47;;;;;;;20.54;41.84;101229.03;5094372;28;20048;-71
2022/04/16 09:30:31;;;;;;;9.05;5.38;;;;;;;20.55;41.74;101228.03;5094318;28;20048;-71
2022/04/16 09:33:01;;;;;;;7.47;5.00;;;;;;;20.56;42.33;101236.97;5094112;28;20522;-72
2022/04/16 09:35:35;;;;;;;9.60;4.95;;;;;;;20.56;42.42;101227.06;5092275;28;20052;-72
2022/04/16 09:38:16;;;;;;;8.50;4.80;;;;;;;20.55;42.74;101224.50;5092874;28;20510;-71
2022/04/16 09:40:48;;;;;;;7.15;4.72;;;;;;;20.55;42.57;101228.03;5092489;28;20059;-72
2022/04/16 09:43:15;;;;;;;8.63;4.93;;;;;;;20.56;42.73;101228.91;5093995;28;20051;-71
2022/04/16 09:45:43;;;;;;;6.05;4.70;;;;;;;20.54;42.62;101220.97;5094097;28;20048;-72
2022/04/16 09:48:12;;;;;;;6.40;4.57;;;;;;;20.54;42.60;101226.34;5093629;28;20067;-71
2022/04/16 09:50:42;;;;;;;7.28;4.55;;;;;;;20.54;42.55;101215.59;5093483;28;20044;-71
2022/04/16 09:53:10;;;;;;;6.18;4.13;;;;;;;20.54;42.76;101226.34;5092353;28;20059;-71
2022/04/16 09:55:40;;;;;;;9.20;4.53;;;;;;;20.54;43.10;101220.09;5092453;28;20044;-72
2022/04/16 09:58:10;;;;;;;10.38;4.00;;;;;;;20.54;42.66;101220.97;5093861;28;20052;-71
2022/04/16 10:00:38;;;;;;;4.55;3.70;;;;;;;20.53;42.80;101224.63;5093486;28;20460;-72
2022/04/16 10:03:26;;;;;;;6.88;3.40;;;;;;;20.54;42.81;101215.59;5080657;28;20041;-71
2022/04/16 10:05:57;;;;;;;4.85;3.78;;;;;;;20.55;42.87;101213.75;5071638;28;20044;-71
2022/04/16 10:08:25;;;;;;;5.78;3.88;;;;;;;20.54;42.92;101209.31;5072791;28;20401;-71
2022/04/16 10:10:55;;;;;;;6.05;4.22;;;;;;;20.54;42.88;101220.97;5073784;28;20045;-71
2022/04/16 10:13:23;;;;;;;5.65;3.95;;;;;;;20.55;43.14;101213.75;5073038;28;20043;-71
2022/04/16 10:15:57;;;;;;;5.32;3.55;;;;;;;20.55;43.09;101208.38;5073008;28;20075;-71
2022/04/16 10:18:25;;;;;;;5.72;3.95;;;;;;;20.54;43.08;101201.25;5073506;28;20400;-71
2022/04/16 10:20:57;;;;;;;6.53;3.97;;;;;;;20.54;42.93;101196.75;5071529;28;20048;-71
2022/04/16 10:23:37;;;;;;;5.43;4.00;;;;;;;20.54;43.14;101199.44;5072903;28;20048;-71
2022/04/16 10:26:09;;;;;;;5.25;4.00;;;;;;;20.54;43.13;101204.84;5073568;28;20052;-71
2022/04/16 10:28:54;;;;;;;5.63;3.95;;;;;;;20.54;43.17;101196.75;5072881;28;20071;-71
2022/04/16 10:31:28;;;;;;;6.50;4.07;;;;;;;20.55;43.05;101195.78;5092630;28;20051;-71
2022/04/16 10:34:18;;;;;;;5.95;4.20;;;;;;;20.54;43.21;101193.19;5093068;28;20047;-71
2022/04/16 10:36:51;;;;;;;5.25;3.85;;;;;;;20.54;43.17;101195.88;5093129;28;20106;-71
2022/04/16 10:39:23;;;;;;;;;;;;;;;20.54;43.32;101204.84;5093410;28;20044;-71
2022/04/16 10:42:01;;;;;;;4.72;3.10;;;;;;;20.56;43.22;101202.00;5091581;28;19934;-71
2022/04/16 10:44:41;;;;;;;5.30;3.72;;;;;;;20.54;43.29;101199.44;5091806;28;20052;-71
2022/04/16 10:47:17;;;;;;;6.35;3.53;;;;;;;20.54;43.42;101204.84;5093365;28;20070;-72
2022/04/16 10:49:45;;;;;;;4.10;3.20;;;;;;;20.54;43.26;101194.06;5092692;28;20051;-71
2022/04/16 10:52:20;;;;;;;4.28;3.55;;;;;;;20.55;43.51;101197.59;5092696;28;20044;-71
2022/04/16 10:54:48;;;;;;;4.43;3.42;;;;;;;20.55;43.56;101195.78;5091407;28;20052;-71
2022/04/16 10:57:21;;;;;;;5.30;3.67;;;;;;;20.54;43.51;101193.19;5092645;28;20047;-71
2022/04/16 10:59:49;;;;;;;6.20;3.90;;;;;;;20.55;43.53;101194.91;5092810;28;20042;-71
2022/04/16 11:02:25;;;;;;;5.68;3.35;;;;;;;20.54;43.37;101199.44;5092382;28;20495;-71
2022/04/16 11:05:02;;;;;;;4.50;3.30;;;;;;;20.55;43.49;101201.16;5075076;28;20041;-71
2022/04/16 11:07:30;;;;;;;4.82;3.13;;;;;;;20.55;43.58;101201.16;5072475;28;20054;-71
2022/04/16 11:09:57;;;;;;;5.70;4.03;;;;;;;20.55;43.64;101192.22;5070976;28;20060;-71
2022/04/16 11:12:26;;;;;;;4.50;3.13;;;;;;;20.55;43.63;101195.78;5072667;28;20045;-71
2022/04/16 11:14:54;;;;;;;4.55;3.00;;;;;;;20.55;43.50;101189.53;5072893;28;20040;-71
2022/04/16 11:17:22;;;;;;;4.47;3.25;;;;;;;20.56;43.61;101196.63;5092405;28;20475;-71
2022/04/16 11:20:06;;;;;;;5.45;3.30;;;;;;;20.55;43.45;101182.31;5092720;28;20051;-71
2022/04/16 11:22:34;;;;;;;4.43;2.83;;;;;;;20.55;43.54;101182.31;5091912;28;20059;-71
2022/04/16 11:25:05;;;;;;;5.97;3.75;;;;;;;20.56;43.42;101178.63;5092518;28;20048;-71
2022/04/16 11:35:59;;;;;;;6.53;3.35;;;;;;;20.57;43.43;101176.78;5092518;28;20045;-71
2022/04/16 11:38:33;;;;;;;4.77;3.43;;;;;;;20.56;43.49;101178.63;5091267;28;20048;-71
2022/04/16 11:41:08;;;;;;;4.85;3.10;;;;;;;20.57;43.58;101179.50;5090993;28;20503;-71
2022/04/16 11:43:45;;;;;;;4.47;3.08;;;;;;;20.56;43.37;101173.25;5092486;28;20051;-71
2022/04/16 11:46:14;;;;;;;5.45;3.63;;;;;;;20.55;43.43;101174.25;5092206;28;20158;-71
2022/04/16 11:48:44;;;;;;;5.30;3.83;;;;;;;20.57;43.38;101174.97;5092990;28;20048;-71
2022/04/16 11:51:13;;;;;;;3.67;3.00;;;;;;;20.56;43.65;101175.94;5096134;28;20044;-71
2022/04/16 11:53:45;;;;;;;4.10;3.22;;;;;;;20.56;43.43;101175.94;5094805;28;20044;-71
2022/04/16 11:56:12;;;;;;;3.70;2.90;;;;;;;20.57;43.41;101171.41;5096511;28;20399;-71